Terminal Aerodrome Forecast
Issued by NWS

Home | Current Version | Previous Version | Text Only | Print | Product List | Glossary On
Versions: 1 2 3 4 5 6 7 8 9 10 11 12 13 14 15
676
FTUS45 KABQ 250529
TAFLVS
TAF
KLVS 250529Z 2506/2606 12008KT P6SM VCTS BKN080CB
      TEMPO 2506/2508 -SHRA BKN070
     FM250800 12008KT P6SM SCT070 BKN120
     FM251500 21010KT P6SM FEW060 BKN250
     FM251930 21014G21KT P6SM VCTS BKN070CB
     FM252200 22014G21KT P6SM VCSH BKN080
     FM260200 25010KT P6SM BKN120
      AMD NOT SKED=

USA.gov is the U.S. government's official web portal to all federal, state and local government web resources and services.